NOO6340 RJFU-RJKA
Flight info
| Callsign | NOO6340 |
|---|---|
| Flight time | 0h 58m |
| Altitude | 32000 |
| Route | KAZSA A582 HKC Y45 BOMAP Y25 KANAH |
| Aircraft | E145/M-SDFGIRW/S |
Departure
| Time | 2026-04-25 23:27 |
|---|---|
| Airport | Nagasaki Airport (RJFU) |
Arrival
| Time | 2026-04-26 00:26 |
|---|---|
| Airport | Amami Airport (RJKA) |
| Time | Latitude | Longitude | Altitude | Speed | Heading |
|---|---|---|---|---|---|
| 2026-04-25 22:47 | 32.91568 | 129.91986 | 9 ft | 0 kts | 48° |
| 2026-04-25 23:08 | 32.91565 | 129.91981 | 9 ft | 2 kts | 47° |
| 2026-04-25 23:09 | 32.91555 | 129.91968 | 9 ft | 2 kts | 48° |
| 2026-04-25 23:09 | 32.91544 | 129.91956 | 9 ft | 2 kts | 48° |
| 2026-04-25 23:09 | 32.91534 | 129.91942 | 9 ft | 2 kts | 48° |
| 2026-04-25 23:09 | 32.91531 | 129.91939 | 9 ft | 0 kts | 48° |
| 2026-04-25 23:13 | 32.91532 | 129.91939 | 9 ft | 0 kts | 48° |
| 2026-04-25 23:13 | 32.91535 | 129.91945 | 9 ft | 0 kts | 79° |
| 2026-04-25 23:13 | 32.91531 | 129.91950 | 9 ft | 0 kts | 172° |
| 2026-04-25 23:14 | 32.91524 | 129.91940 | 9 ft | 2 kts | 231° |
| 2026-04-25 23:14 | 32.91508 | 129.91917 | 9 ft | 4 kts | 231° |
| 2026-04-25 23:14 | 32.91485 | 129.91882 | 9 ft | 6 kts | 231° |
| 2026-04-25 23:14 | 32.91484 | 129.91847 | 9 ft | 5 kts | 311° |
| 2026-04-25 23:15 | 32.91512 | 129.91815 | 9 ft | 0 kts | 317° |
| 2026-04-25 23:15 | 32.91517 | 129.91811 | 9 ft | 1 kts | 318° |
| 2026-04-25 23:15 | 32.91532 | 129.91794 | 9 ft | 3 kts | 318° |
| 2026-04-25 23:15 | 32.91558 | 129.91766 | 9 ft | 5 kts | 318° |
| 2026-04-25 23:16 | 32.91594 | 129.91728 | 9 ft | 7 kts | 318° |
| 2026-04-25 23:16 | 32.91640 | 129.91679 | 9 ft | 9 kts | 317° |
| 2026-04-25 23:16 | 32.91695 | 129.91620 | 9 ft | 11 kts | 317° |
| 2026-04-25 23:16 | 32.91754 | 129.91557 | 9 ft | 9 kts | 319° |
| 2026-04-25 23:17 | 32.91790 | 129.91519 | 9 ft | 3 kts | 317° |
| 2026-04-25 23:17 | 32.91813 | 129.91495 | 9 ft | 5 kts | 317° |
| 2026-04-25 23:17 | 32.91846 | 129.91458 | 9 ft | 7 kts | 317° |
| 2026-04-25 23:17 | 32.91890 | 129.91411 | 9 ft | 9 kts | 317° |
| 2026-04-25 23:18 | 32.91944 | 129.91356 | 9 ft | 11 kts | 319° |
| 2026-04-25 23:18 | 32.92007 | 129.91289 | 9 ft | 13 kts | 318° |
| 2026-04-25 23:18 | 32.92079 | 129.91211 | 9 ft | 14 kts | 318° |
| 2026-04-25 23:18 | 32.92160 | 129.91124 | 9 ft | 16 kts | 318° |
| 2026-04-25 23:19 | 32.92233 | 129.91046 | 9 ft | 8 kts | 318° |
| 2026-04-25 23:19 | 32.92273 | 129.91003 | 9 ft | 8 kts | 318° |
| 2026-04-25 23:19 | 32.92320 | 129.90953 | 9 ft | 10 kts | 318° |
| 2026-04-25 23:19 | 32.92377 | 129.90892 | 9 ft | 11 kts | 318° |
| 2026-04-25 23:20 | 32.92437 | 129.90828 | 9 ft | 8 kts | 318° |
| 2026-04-25 23:20 | 32.92484 | 129.90779 | 9 ft | 10 kts | 318° |
| 2026-04-25 23:20 | 32.92522 | 129.90738 | 9 ft | 4 kts | 319° |
| 2026-04-25 23:20 | 32.92553 | 129.90706 | 9 ft | 6 kts | 318° |
| 2026-04-25 23:21 | 32.92593 | 129.90663 | 9 ft | 8 kts | 318° |
| 2026-04-25 23:21 | 32.92643 | 129.90610 | 9 ft | 10 kts | 318° |
| 2026-04-25 23:21 | 32.92701 | 129.90547 | 9 ft | 9 kts | 318° |
| 2026-04-25 23:21 | 32.92734 | 129.90512 | 9 ft | 4 kts | 319° |
| 2026-04-25 23:22 | 32.92762 | 129.90483 | 9 ft | 6 kts | 318° |
| 2026-04-25 23:22 | 32.92784 | 129.90443 | 9 ft | 4 kts | 283° |
| 2026-04-25 23:22 | 32.92783 | 129.90405 | 9 ft | 5 kts | 253° |
| 2026-04-25 23:23 | 32.92762 | 129.90369 | 9 ft | 0 kts | 229° |
| 2026-04-25 23:23 | 32.92761 | 129.90367 | 9 ft | 1 kts | 229° |
| 2026-04-25 23:23 | 32.92751 | 129.90353 | 9 ft | 3 kts | 227° |
| 2026-04-25 23:23 | 32.92726 | 129.90321 | 9 ft | 6 kts | 228° |
| 2026-04-25 23:24 | 32.92706 | 129.90294 | 9 ft | 0 kts | 228° |
| 2026-04-25 23:24 | 32.92705 | 129.90294 | 9 ft | 0 kts | 228° |
| 2026-04-25 23:24 | 32.92697 | 129.90285 | 9 ft | 2 kts | 215° |
| 2026-04-25 23:24 | 32.92680 | 129.90292 | 9 ft | 3 kts | 139° |
| 2026-04-25 23:25 | 32.92677 | 129.90297 | 9 ft | 0 kts | 136° |
| 2026-04-25 23:26 | 32.92538 | 129.90446 | 9 ft | 61 kts | 138° |
| 2026-04-25 23:26 | 32.92057 | 129.90959 | 9 ft | 120 kts | 138° |
| 2026-04-25 23:27 | 32.91336 | 129.91725 | 96 ft | 150 kts | 138° |
| 2026-04-25 23:27 | 32.90528 | 129.92572 | 489 ft | 159 kts | 139° |
| 2026-04-25 23:27 | 32.89713 | 129.93404 | 1096 ft | 157 kts | 137° |
| 2026-04-25 23:27 | 32.88839 | 129.94264 | 1572 ft | 166 kts | 137° |
| 2026-04-25 23:28 | 32.87939 | 129.95140 | 2093 ft | 171 kts | 137° |
| 2026-04-25 23:28 | 32.87024 | 129.96033 | 2657 ft | 173 kts | 138° |
| 2026-04-25 23:28 | 32.86095 | 129.96938 | 3249 ft | 173 kts | 137° |
| 2026-04-25 23:28 | 32.85139 | 129.97873 | 3575 ft | 190 kts | 138° |
| 2026-04-25 23:29 | 32.84027 | 129.98958 | 3588 ft | 226 kts | 139° |
| 2026-04-25 23:29 | 32.82730 | 130.00220 | 3879 ft | 249 kts | 139° |
| 2026-04-25 23:29 | 32.81411 | 130.01503 | 4678 ft | 248 kts | 139° |
| 2026-04-25 23:29 | 32.80087 | 130.02794 | 5460 ft | 248 kts | 140° |
| 2026-04-25 23:30 | 32.78752 | 130.04092 | 6201 ft | 249 kts | 141° |
| 2026-04-25 23:30 | 32.77405 | 130.05403 | 6903 ft | 252 kts | 141° |
| 2026-04-25 23:30 | 32.76049 | 130.06722 | 7516 ft | 257 kts | 141° |
| 2026-04-25 23:30 | 32.74675 | 130.08057 | 8173 ft | 259 kts | 141° |
| 2026-04-25 23:31 | 32.73261 | 130.09431 | 8830 ft | 262 kts | 142° |
| 2026-04-25 23:31 | 32.71870 | 130.10782 | 9460 ft | 264 kts | 142° |
| 2026-04-25 23:31 | 32.70449 | 130.12161 | 10074 ft | 267 kts | 142° |
| 2026-04-25 23:31 | 32.68973 | 130.13594 | 10551 ft | 276 kts | 142° |
| 2026-04-25 23:32 | 32.67467 | 130.15054 | 10965 ft | 286 kts | 143° |
| 2026-04-25 23:32 | 32.65909 | 130.16565 | 11356 ft | 296 kts | 143° |
| 2026-04-25 23:32 | 32.64280 | 130.18144 | 11763 ft | 305 kts | 143° |
| 2026-04-25 23:32 | 32.62624 | 130.19748 | 12131 ft | 314 kts | 143° |
| 2026-04-25 23:33 | 32.60916 | 130.21402 | 12604 ft | 319 kts | 143° |
| 2026-04-25 23:33 | 32.59180 | 130.23065 | 13106 ft | 322 kts | 147° |
| 2026-04-25 23:33 | 32.57175 | 130.24208 | 13576 ft | 320 kts | 165° |
| 2026-04-25 23:33 | 32.55052 | 130.25038 | 13963 ft | 327 kts | 164° |
| 2026-04-25 23:34 | 32.52859 | 130.25906 | 14319 ft | 333 kts | 165° |
| 2026-04-25 23:34 | 32.50710 | 130.26755 | 15102 ft | 326 kts | 165° |
| 2026-04-25 23:34 | 32.48541 | 130.27609 | 15585 ft | 328 kts | 165° |
| 2026-04-25 23:34 | 32.46358 | 130.28471 | 16021 ft | 332 kts | 165° |
| 2026-04-25 23:35 | 32.44163 | 130.29336 | 16464 ft | 334 kts | 166° |
| 2026-04-25 23:35 | 32.41939 | 130.30212 | 16939 ft | 336 kts | 165° |
| 2026-04-25 23:35 | 32.39719 | 130.31088 | 17335 ft | 340 kts | 166° |
| 2026-04-25 23:35 | 32.37481 | 130.31969 | 17795 ft | 341 kts | 166° |
| 2026-04-25 23:36 | 32.35231 | 130.32854 | 18299 ft | 341 kts | 166° |
| 2026-04-25 23:36 | 32.33715 | 130.33452 | 18694 ft | 339 kts | 166° |
| 2026-04-25 23:36 | 32.30750 | 130.34618 | 19459 ft | 335 kts | 167° |
| 2026-04-25 23:36 | 32.28583 | 130.35469 | 20068 ft | 330 kts | 168° |
| 2026-04-25 23:37 | 32.26405 | 130.36325 | 20543 ft | 331 kts | 169° |
| 2026-04-25 23:37 | 32.24215 | 130.37184 | 21060 ft | 329 kts | 169° |
| 2026-04-25 23:37 | 32.22064 | 130.38028 | 21606 ft | 326 kts | 170° |
| 2026-04-25 23:37 | 32.19912 | 130.38873 | 22144 ft | 323 kts | 171° |
| 2026-04-25 23:38 | 32.17812 | 130.39696 | 22650 ft | 321 kts | 171° |
| 2026-04-25 23:38 | 32.15697 | 130.40524 | 23197 ft | 317 kts | 171° |
| 2026-04-25 23:38 | 32.13612 | 130.41341 | 23646 ft | 316 kts | 172° |
| 2026-04-25 23:38 | 32.11551 | 130.42148 | 24176 ft | 312 kts | 173° |
| 2026-04-25 23:39 | 32.09499 | 130.42941 | 24613 ft | 311 kts | 173° |
| 2026-04-25 23:39 | 32.07441 | 130.43739 | 25099 ft | 308 kts | 174° |
| 2026-04-25 23:39 | 32.05415 | 130.44525 | 25578 ft | 305 kts | 174° |
| 2026-04-25 23:39 | 32.03397 | 130.45306 | 26092 ft | 301 kts | 175° |
| 2026-04-25 23:40 | 32.01419 | 130.46072 | 26552 ft | 299 kts | 175° |
| 2026-04-25 23:40 | 31.99460 | 130.46829 | 26983 ft | 296 kts | 175° |
| 2026-04-25 23:40 | 31.97527 | 130.47578 | 27505 ft | 291 kts | 176° |
| 2026-04-25 23:40 | 31.95614 | 130.48318 | 27969 ft | 287 kts | 177° |
| 2026-04-25 23:41 | 31.93720 | 130.49048 | 28361 ft | 286 kts | 178° |
| 2026-04-25 23:41 | 31.91829 | 130.49779 | 28729 ft | 284 kts | 178° |
| 2026-04-25 23:41 | 31.89982 | 130.50493 | 29167 ft | 280 kts | 178° |
| 2026-04-25 23:41 | 31.88129 | 130.51207 | 29587 ft | 278 kts | 179° |
| 2026-04-25 23:42 | 31.86318 | 130.51904 | 29976 ft | 276 kts | 179° |
| 2026-04-25 23:42 | 31.84498 | 130.52606 | 30375 ft | 275 kts | 179° |
| 2026-04-25 23:42 | 31.82663 | 130.53311 | 30700 ft | 275 kts | 178° |
| 2026-04-25 23:42 | 31.80846 | 130.54013 | 31123 ft | 272 kts | 179° |
| 2026-04-25 23:43 | 31.79058 | 130.54701 | 31480 ft | 271 kts | 179° |
| 2026-04-25 23:43 | 31.77264 | 130.55391 | 31804 ft | 271 kts | 179° |
| 2026-04-25 23:43 | 31.75466 | 130.56081 | 32009 ft | 275 kts | 179° |
| 2026-04-25 23:43 | 31.73603 | 130.56793 | 32003 ft | 284 kts | 179° |
| 2026-04-25 23:44 | 31.71696 | 130.57487 | 32017 ft | 284 kts | 182° |
| 2026-04-25 23:44 | 31.69777 | 130.57738 | 32018 ft | 271 kts | 194° |
| 2026-04-25 23:44 | 31.67951 | 130.57434 | 32016 ft | 264 kts | 205° |
| 2026-04-25 23:44 | 31.66221 | 130.56692 | 32016 ft | 266 kts | 208° |
| 2026-04-25 23:45 | 31.64475 | 130.55907 | 32008 ft | 272 kts | 208° |
| 2026-04-25 23:45 | 31.62697 | 130.55103 | 32010 ft | 277 kts | 208° |
| 2026-04-25 23:45 | 31.60886 | 130.54282 | 32010 ft | 283 kts | 208° |
| 2026-04-25 23:45 | 31.59032 | 130.53445 | 32006 ft | 288 kts | 207° |
| 2026-04-25 23:46 | 31.57139 | 130.52615 | 31997 ft | 293 kts | 208° |
| 2026-04-25 23:46 | 31.55212 | 130.51767 | 31992 ft | 297 kts | 207° |
| 2026-04-25 23:46 | 31.53250 | 130.50903 | 31990 ft | 301 kts | 207° |
| 2026-04-25 23:47 | 31.49366 | 130.49194 | 31984 ft | 309 kts | 207° |
| 2026-04-25 23:47 | 31.45307 | 130.47411 | 31984 ft | 315 kts | 207° |
| 2026-04-25 23:48 | 31.41172 | 130.45595 | 31977 ft | 321 kts | 207° |
| 2026-04-25 23:48 | 31.36926 | 130.43732 | 31974 ft | 327 kts | 206° |
| 2026-04-25 23:49 | 31.32644 | 130.41855 | 31966 ft | 331 kts | 207° |
| 2026-04-25 23:49 | 31.28286 | 130.39947 | 31968 ft | 335 kts | 206° |
| 2026-04-25 23:50 | 31.23951 | 130.37942 | 31965 ft | 337 kts | 207° |
| 2026-04-25 23:50 | 31.19562 | 130.35877 | 31960 ft | 340 kts | 207° |
| 2026-04-25 23:51 | 31.15188 | 130.33820 | 31955 ft | 342 kts | 207° |
| 2026-04-25 23:51 | 31.10736 | 130.31731 | 31955 ft | 344 kts | 207° |
| 2026-04-25 23:52 | 31.06270 | 130.29637 | 31946 ft | 346 kts | 207° |
| 2026-04-25 23:52 | 31.01798 | 130.27548 | 31944 ft | 347 kts | 206° |
| 2026-04-25 23:53 | 30.97320 | 130.25459 | 31944 ft | 348 kts | 207° |
| 2026-04-25 23:53 | 30.92825 | 130.23364 | 31941 ft | 349 kts | 206° |
| 2026-04-25 23:54 | 30.88294 | 130.21254 | 31957 ft | 350 kts | 206° |
| 2026-04-25 23:54 | 30.83764 | 130.19148 | 31959 ft | 352 kts | 206° |
| 2026-04-25 23:55 | 30.79215 | 130.17033 | 31959 ft | 354 kts | 206° |
| 2026-04-25 23:55 | 30.74643 | 130.14911 | 31952 ft | 355 kts | 206° |
| 2026-04-25 23:56 | 30.70031 | 130.12772 | 31955 ft | 356 kts | 206° |
| 2026-04-25 23:56 | 30.65491 | 130.10671 | 31948 ft | 346 kts | 206° |
| 2026-04-25 23:57 | 30.61109 | 130.08643 | 31946 ft | 333 kts | 206° |
| 2026-04-25 23:57 | 30.56842 | 130.06676 | 31947 ft | 325 kts | 206° |
| 2026-04-25 23:58 | 30.52670 | 130.04796 | 31941 ft | 318 kts | 206° |
| 2026-04-25 23:58 | 30.48546 | 130.02937 | 31943 ft | 317 kts | 206° |
| 2026-04-25 23:59 | 30.44434 | 130.01086 | 31941 ft | 317 kts | 206° |
| 2026-04-25 23:59 | 30.40323 | 129.99237 | 31944 ft | 317 kts | 206° |
| 2026-04-26 00:00 | 30.36201 | 129.97385 | 31943 ft | 319 kts | 206° |
| 2026-04-26 00:00 | 30.32042 | 129.95589 | 31944 ft | 323 kts | 204° |
| 2026-04-26 00:01 | 30.27759 | 129.93810 | 31940 ft | 327 kts | 205° |
| 2026-04-26 00:01 | 30.23455 | 129.92021 | 31940 ft | 330 kts | 204° |
| 2026-04-26 00:02 | 30.19127 | 129.90224 | 31938 ft | 333 kts | 204° |
| 2026-04-26 00:02 | 30.14756 | 129.88411 | 31944 ft | 335 kts | 205° |
| 2026-04-26 00:03 | 30.10336 | 129.86578 | 31954 ft | 337 kts | 204° |
| 2026-04-26 00:03 | 30.05935 | 129.84755 | 31956 ft | 338 kts | 204° |
| 2026-04-26 00:04 | 30.01497 | 129.82919 | 31954 ft | 339 kts | 204° |
| 2026-04-26 00:04 | 29.96744 | 129.81862 | 31579 ft | 358 kts | 194° |
| 2026-04-26 00:04 | 29.94262 | 129.81483 | 31173 ft | 363 kts | 194° |
| 2026-04-26 00:05 | 29.91740 | 129.81094 | 30757 ft | 363 kts | 194° |
| 2026-04-26 00:05 | 29.89250 | 129.80708 | 30355 ft | 362 kts | 194° |
| 2026-04-26 00:05 | 29.86753 | 129.80319 | 29972 ft | 362 kts | 194° |
| 2026-04-26 00:05 | 29.84270 | 129.79932 | 29551 ft | 362 kts | 193° |
| 2026-04-26 00:06 | 29.81782 | 129.79542 | 29103 ft | 363 kts | 194° |
| 2026-04-26 00:06 | 29.79249 | 129.79149 | 28604 ft | 365 kts | 194° |
| 2026-04-26 00:06 | 29.76749 | 129.78758 | 28113 ft | 364 kts | 194° |
| 2026-04-26 00:06 | 29.74256 | 129.78371 | 27503 ft | 363 kts | 194° |
| 2026-04-26 00:07 | 29.71733 | 129.77977 | 26878 ft | 363 kts | 194° |
| 2026-04-26 00:07 | 29.69256 | 129.77593 | 26256 ft | 355 kts | 194° |
| 2026-04-26 00:07 | 29.66868 | 129.77222 | 25630 ft | 344 kts | 194° |
| 2026-04-26 00:07 | 29.64526 | 129.76859 | 24996 ft | 335 kts | 195° |
| 2026-04-26 00:08 | 29.62251 | 129.76506 | 24366 ft | 327 kts | 194° |
| 2026-04-26 00:08 | 29.60003 | 129.76155 | 23735 ft | 320 kts | 195° |
| 2026-04-26 00:08 | 29.57845 | 129.75819 | 23109 ft | 314 kts | 194° |
| 2026-04-26 00:08 | 29.55696 | 129.75485 | 22484 ft | 309 kts | 195° |
| 2026-04-26 00:09 | 29.53561 | 129.75156 | 21859 ft | 305 kts | 195° |
| 2026-04-26 00:09 | 29.51476 | 129.74831 | 21244 ft | 301 kts | 195° |
| 2026-04-26 00:09 | 29.49419 | 129.74512 | 20629 ft | 298 kts | 194° |
| 2026-04-26 00:09 | 29.47398 | 129.74199 | 20021 ft | 295 kts | 194° |
| 2026-04-26 00:10 | 29.45358 | 129.73883 | 19400 ft | 294 kts | 194° |
| 2026-04-26 00:10 | 29.43347 | 129.73570 | 18788 ft | 293 kts | 195° |
| 2026-04-26 00:10 | 29.41332 | 129.73259 | 18179 ft | 292 kts | 194° |
| 2026-04-26 00:10 | 29.39325 | 129.72949 | 17571 ft | 291 kts | 195° |
| 2026-04-26 00:11 | 29.37317 | 129.72636 | 16969 ft | 291 kts | 194° |
| 2026-04-26 00:11 | 29.35321 | 129.72328 | 16366 ft | 291 kts | 194° |
| 2026-04-26 00:11 | 29.33311 | 129.72018 | 15760 ft | 292 kts | 194° |
| 2026-04-26 00:11 | 29.31296 | 129.71707 | 15153 ft | 293 kts | 194° |
| 2026-04-26 00:12 | 29.29286 | 129.71396 | 14555 ft | 294 kts | 194° |
| 2026-04-26 00:12 | 29.27249 | 129.71083 | 13948 ft | 295 kts | 194° |
| 2026-04-26 00:12 | 29.25215 | 129.70769 | 13530 ft | 295 kts | 194° |
| 2026-04-26 00:12 | 29.23171 | 129.70453 | 13169 ft | 300 kts | 193° |
| 2026-04-26 00:13 | 29.21094 | 129.70132 | 12807 ft | 304 kts | 193° |
| 2026-04-26 00:13 | 29.18979 | 129.69806 | 12444 ft | 307 kts | 193° |
| 2026-04-26 00:13 | 29.16857 | 129.69479 | 12081 ft | 309 kts | 192° |
| 2026-04-26 00:13 | 29.14708 | 129.69150 | 11719 ft | 311 kts | 192° |
| 2026-04-26 00:14 | 29.12565 | 129.68970 | 11344 ft | 305 kts | 182° |
| 2026-04-26 00:14 | 29.10484 | 129.69034 | 10972 ft | 298 kts | 182° |
| 2026-04-26 00:14 | 29.08421 | 129.69092 | 10591 ft | 291 kts | 182° |
| 2026-04-26 00:14 | 29.06415 | 129.69147 | 10215 ft | 286 kts | 181° |
| 2026-04-26 00:15 | 29.04430 | 129.69202 | 9851 ft | 288 kts | 181° |
| 2026-04-26 00:15 | 29.02433 | 129.69257 | 9492 ft | 282 kts | 180° |
| 2026-04-26 00:15 | 29.00504 | 129.69312 | 9242 ft | 273 kts | 181° |
| 2026-04-26 00:15 | 28.98627 | 129.69363 | 8988 ft | 265 kts | 181° |
| 2026-04-26 00:16 | 28.96767 | 129.69415 | 8743 ft | 271 kts | 180° |
| 2026-04-26 00:16 | 28.94890 | 129.69467 | 8503 ft | 270 kts | 181° |
| 2026-04-26 00:16 | 28.93022 | 129.69519 | 8258 ft | 269 kts | 181° |
| 2026-04-26 00:16 | 28.91147 | 129.69571 | 8013 ft | 268 kts | 181° |
| 2026-04-26 00:17 | 28.89294 | 129.69621 | 7773 ft | 267 kts | 180° |
| 2026-04-26 00:17 | 28.87442 | 129.69673 | 7530 ft | 266 kts | 180° |
| 2026-04-26 00:17 | 28.85574 | 129.69725 | 7212 ft | 266 kts | 180° |
| 2026-04-26 00:17 | 28.83739 | 129.69775 | 6847 ft | 262 kts | 180° |
| 2026-04-26 00:18 | 28.81904 | 129.69827 | 6392 ft | 263 kts | 180° |
| 2026-04-26 00:18 | 28.80090 | 129.69878 | 5914 ft | 264 kts | 180° |
| 2026-04-26 00:18 | 28.78242 | 129.69928 | 5406 ft | 264 kts | 180° |
| 2026-04-26 00:18 | 28.76437 | 129.69978 | 4867 ft | 251 kts | 180° |
| 2026-04-26 00:19 | 28.74726 | 129.70026 | 4368 ft | 241 kts | 180° |
| 2026-04-26 00:19 | 28.73088 | 129.70071 | 3873 ft | 233 kts | 180° |
| 2026-04-26 00:19 | 28.71491 | 129.70116 | 3488 ft | 222 kts | 181° |
| 2026-04-26 00:19 | 28.70001 | 129.70157 | 3240 ft | 209 kts | 181° |
| 2026-04-26 00:20 | 28.68553 | 129.70197 | 3021 ft | 208 kts | 181° |
| 2026-04-26 00:20 | 28.67113 | 129.70236 | 2776 ft | 207 kts | 181° |
| 2026-04-26 00:20 | 28.65657 | 129.70276 | 2528 ft | 207 kts | 182° |
| 2026-04-26 00:20 | 28.64222 | 129.70316 | 2284 ft | 207 kts | 181° |
| 2026-04-26 00:21 | 28.62812 | 129.70575 | 2093 ft | 203 kts | 162° |
| 2026-04-26 00:21 | 28.61490 | 129.71222 | 1903 ft | 209 kts | 160° |
| 2026-04-26 00:21 | 28.60140 | 129.71880 | 1787 ft | 213 kts | 160° |
| 2026-04-26 00:21 | 28.58769 | 129.72548 | 1666 ft | 216 kts | 160° |
| 2026-04-26 00:22 | 28.57358 | 129.73235 | 1550 ft | 218 kts | 159° |
| 2026-04-26 00:22 | 28.55996 | 129.73900 | 1508 ft | 206 kts | 160° |
| 2026-04-26 00:22 | 28.54759 | 129.74503 | 1484 ft | 182 kts | 160° |
| 2026-04-26 00:22 | 28.53622 | 129.75056 | 1499 ft | 173 kts | 161° |
| 2026-04-26 00:23 | 28.52561 | 129.75572 | 1527 ft | 161 kts | 160° |
| 2026-04-26 00:23 | 28.51532 | 129.76000 | 1492 ft | 149 kts | 178° |
| 2026-04-26 00:23 | 28.50610 | 129.75774 | 1500 ft | 128 kts | 210° |
| 2026-04-26 00:23 | 28.49817 | 129.75301 | 1329 ft | 130 kts | 212° |
| 2026-04-26 00:24 | 28.49031 | 129.74791 | 1164 ft | 131 kts | 213° |
| 2026-04-26 00:24 | 28.48237 | 129.74269 | 987 ft | 131 kts | 212° |
| 2026-04-26 00:24 | 28.47448 | 129.73750 | 818 ft | 131 kts | 213° |
| 2026-04-26 00:24 | 28.46658 | 129.73231 | 641 ft | 131 kts | 212° |
| 2026-04-26 00:25 | 28.45835 | 129.72788 | 480 ft | 131 kts | 205° |
| 2026-04-26 00:25 | 28.45001 | 129.72362 | 316 ft | 131 kts | 207° |
| 2026-04-26 00:25 | 28.44195 | 129.71896 | 121 ft | 130 kts | 209° |
| 2026-04-26 00:25 | 28.43417 | 129.71454 | 17 ft | 110 kts | 207° |
| 2026-04-26 00:26 | 28.42841 | 129.71129 | 17 ft | 79 kts | 206° |
| 2026-04-26 00:26 | 28.42417 | 129.70897 | 20 ft | 45 kts | 206° |
| 2026-04-26 00:26 | 28.42297 | 129.70833 | 19 ft | 14 kts | 212° |
| 2026-04-26 00:26 | 28.42298 | 129.70735 | 20 ft | 14 kts | 296° |
| 2026-04-26 00:27 | 28.42328 | 129.70666 | 20 ft | 6 kts | 304° |
| 2026-04-26 00:27 | 28.42373 | 129.70666 | 20 ft | 8 kts | 26° |
| 2026-04-26 00:27 | 28.42432 | 129.70700 | 20 ft | 10 kts | 26° |
| 2026-04-26 00:27 | 28.42504 | 129.70738 | 20 ft | 12 kts | 24° |
| 2026-04-26 00:28 | 28.42564 | 129.70770 | 20 ft | 6 kts | 26° |
| 2026-04-26 00:28 | 28.42609 | 129.70796 | 20 ft | 8 kts | 26° |
| 2026-04-26 00:28 | 28.42668 | 129.70828 | 20 ft | 9 kts | 26° |
| 2026-04-26 00:28 | 28.42720 | 129.70856 | 20 ft | 8 kts | 25° |
| 2026-04-26 00:29 | 28.42781 | 129.70889 | 20 ft | 10 kts | 26° |
| 2026-04-26 00:29 | 28.42852 | 129.70931 | 20 ft | 11 kts | 26° |
| 2026-04-26 00:29 | 28.42924 | 129.70970 | 20 ft | 8 kts | 26° |
| 2026-04-26 00:29 | 28.42971 | 129.70996 | 20 ft | 4 kts | 26° |
| 2026-04-26 00:30 | 28.43008 | 129.71008 | 20 ft | 5 kts | 342° |
| 2026-04-26 00:30 | 28.43026 | 129.70970 | 21 ft | 4 kts | 294° |
| 2026-04-26 00:30 | 28.43039 | 129.70938 | 21 ft | 4 kts | 298° |
| 2026-04-26 00:30 | 28.43052 | 129.70909 | 22 ft | 4 kts | 296° |
| 2026-04-26 00:31 | 28.43063 | 129.70880 | 23 ft | 0 kts | 296° |